Time;durP1;ratioP1;P1;durP2;ratioP2;P2;SDS_P1;SDS_P2;PMS_P1;PMS_P2;Temp;Humidity;BMP_temperature;BMP_pressure;BME280_temperature;BME280_humidity;BME280_pressure;Samples;Min_cycle;Max_cycle;Signal;HPM_P1;HPM_P2
2024/03/08 00:01:39;;;;;;;34.53;17.77;;;;;;;-146.27;79.96;46195.34;5069674;28;20031;-77
2024/03/08 00:04:06;;;;;;;37.42;16.75;;;;;;;-146.27;79.44;46233.16;5069861;28;20028;-77
2024/03/08 00:06:31;;;;;;;34.35;17.13;;;;;;;-146.27;79.23;46245.13;5077310;28;20365;-78
2024/03/08 00:08:57;;;;;;;33.15;17.88;;;;;;;-146.27;79.45;46245.13;5067713;28;20119;-77
2024/03/08 00:11:25;;;;;;;44.47;18.25;;;;;;;-146.27;79.20;46237.16;5060994;28;20033;-76
2024/03/08 00:13:52;;;;;;;35.63;16.90;;;;;;;-146.27;79.04;46239.16;5070620;28;20033;-77
2024/03/08 00:16:19;;;;;;;36.40;16.77;;;;;;;-146.27;79.10;46223.22;5074020;28;20021;-77
2024/03/08 00:18:44;;;;;;;41.10;17.77;;;;;;;-146.27;78.79;46237.16;5070552;28;20443;-77
2024/03/08 00:21:10;;;;;;;32.03;16.75;;;;;;;-146.27;78.53;46245.13;5066677;28;20052;-76
2024/03/08 00:23:36;;;;;;;33.67;16.40;;;;;;;-146.27;78.54;46239.16;5070211;28;20037;-77
2024/03/08 00:26:03;;;;;;;33.95;17.10;;;;;;;-146.27;78.55;46249.09;5069447;28;20533;-77
2024/03/08 00:28:28;;;;;;;38.75;17.50;;;;;;;-146.27;78.27;46237.16;5071378;28;20578;-77
2024/03/08 00:30:54;;;;;;;36.22;18.23;;;;;;;-146.27;77.89;46229.19;5069294;28;20024;-77
2024/03/08 00:33:19;;;;;;;33.40;17.70;;;;;;;-146.27;77.78;46272.97;5071105;28;20050;-77
2024/03/08 00:35:44;;;;;;;36.40;17.52;;;;;;;-146.27;78.08;46261.03;5068916;28;20025;-76
2024/03/08 00:38:10;;;;;;;34.70;17.88;;;;;;;-146.27;77.77;46265.03;5074259;28;20024;-78
2024/03/08 00:40:35;;;;;;;42.92;17.38;;;;;;;-146.27;77.98;46245.13;5071123;28;20052;-77
2024/03/08 00:43:03;;;;;;;33.20;16.80;;;;;;;-146.27;77.76;46245.13;5069279;28;20035;-77
2024/03/08 00:45:29;;;;;;;37.17;16.48;;;;;;;-146.27;77.76;46298.88;5069279;28;20082;-78
2024/03/08 00:47:54;;;;;;;30.52;16.02;;;;;;;-146.27;77.64;46284.94;5066201;28;20028;-77
2024/03/08 00:50:20;;;;;;;39.30;17.80;;;;;;;-146.27;77.76;46284.94;5067041;28;20485;-76
2024/03/08 00:52:46;;;;;;;35.63;17.45;;;;;;;-146.27;77.53;46272.97;5068767;28;20118;-71
2024/03/08 00:55:12;;;;;;;39.45;17.25;;;;;;;-146.27;77.77;46276.97;5064450;28;20043;-72
2024/03/08 00:57:38;;;;;;;34.67;16.48;;;;;;;-146.27;77.86;46296.88;5067683;28;20472;-71
2024/03/08 01:00:09;;;;;;;30.30;16.80;;;;;;;-146.27;78.29;46300.84;5064626;28;20028;-72
2024/03/08 01:02:35;;;;;;;33.63;16.95;;;;;;;-146.27;78.35;46292.88;5069047;28;20020;-70
2024/03/08 01:05:01;;;;;;;37.53;16.65;;;;;;;-146.27;78.72;46274.97;5063797;28;20036;-71
2024/03/08 01:07:26;;;;;;;34.60;17.38;;;;;;;-146.27;78.36;46284.94;5071451;28;20033;-70
2024/03/08 01:09:52;;;;;;;42.10;17.88;;;;;;;-146.27;78.21;46284.94;5068019;28;20028;-70
2024/03/08 01:12:17;;;;;;;33.88;16.92;;;;;;;-146.27;78.51;46269.00;5069496;28;20028;-70
2024/03/08 01:14:43;;;;;;;41.38;17.13;;;;;;;-146.27;78.63;46292.88;5073301;28;20050;-70
2024/03/08 01:17:09;;;;;;;40.35;17.02;;;;;;;-146.27;78.35;46294.88;5070335;28;20081;-71
2024/03/08 01:19:34;;;;;;;34.97;17.95;;;;;;;-146.27;78.39;46284.94;5069374;28;20413;-70
2024/03/08 01:22:00;;;;;;;42.92;18.88;;;;;;;-146.27;78.01;46284.94;5065147;28;20028;-71
2024/03/08 01:24:25;;;;;;;37.15;17.52;;;;;;;-146.27;78.19;46292.88;5062188;28;20052;-71
2024/03/08 01:26:51;;;;;;;37.35;17.02;;;;;;;-146.27;78.06;46300.84;5066222;28;20045;-71
2024/03/08 01:29:16;;;;;;;39.88;18.05;;;;;;;-146.27;78.15;46340.66;5066929;28;20124;-71
2024/03/08 01:31:41;;;;;;;32.50;16.40;;;;;;;-146.27;78.19;46308.81;5070023;28;20032;-70
2024/03/08 01:34:07;;;;;;;38.70;17.42;;;;;;;-146.27;78.52;46302.84;5067400;28;20060;-71
2024/03/08 01:36:32;;;;;;;32.40;16.25;;;;;;;-146.27;78.46;46324.75;5069911;28;20058;-71
2024/03/08 01:38:57;;;;;;;40.78;17.67;;;;;;;-146.27;78.35;46326.72;5063891;28;20085;-70
2024/03/08 01:41:23;;;;;;;41.88;17.92;;;;;;;-146.27;78.31;46316.78;5069088;28;20499;-71
2024/03/08 01:43:50;;;;;;;34.85;17.30;;;;;;;-146.27;78.29;46294.88;5058543;28;20025;-72
2024/03/08 01:46:18;;;;;;;35.25;16.83;;;;;;;-146.27;78.14;46326.72;5068622;28;20032;-72
2024/03/08 01:48:44;;;;;;;40.38;18.70;;;;;;;-146.27;78.63;46324.75;5062213;28;20492;-69
2024/03/08 01:51:11;;;;;;;38.80;17.23;;;;;;;-146.27;78.18;46340.66;5064915;28;20052;-70
2024/03/08 01:53:37;;;;;;;38.25;17.65;;;;;;;-146.27;78.29;46330.72;5063124;28;20086;-70
2024/03/08 01:56:03;;;;;;;37.70;16.95;;;;;;;-146.27;79.31;46304.84;5069460;28;20032;-71
2024/03/08 01:58:29;;;;;;;34.47;17.48;;;;;;;-146.27;78.16;46348.63;5074227;28;20107;-71
2024/03/08 02:00:56;;;;;;;33.70;16.75;;;;;;;-146.27;78.68;46298.88;5068758;28;20058;-70
2024/03/08 02:03:22;;;;;;;39.35;17.50;;;;;;;-146.27;78.60;46306.81;5065525;28;20029;-71
2024/03/08 02:05:48;;;;;;;33.20;16.98;;;;;;;-146.27;79.30;46342.66;5068806;28;20476;-71
2024/03/08 02:08:14;;;;;;;40.88;18.73;;;;;;;-146.27;79.07;46352.63;5069414;28;20032;-71
2024/03/08 02:10:46;;;;;;;40.13;18.15;;;;;;;-146.27;79.06;46344.66;5066220;28;20141;-70
2024/03/08 02:13:12;;;;;;;41.10;18.58;;;;;;;-146.27;78.86;46338.69;5061260;28;20064;-71
2024/03/08 02:16:00;;;;;;;35.38;18.02;;;;;;;-146.27;78.65;46318.78;5058451;28;20448;-70
2024/03/08 02:18:26;;;;;;;35.10;16.70;;;;;;;-146.27;78.51;46324.75;5066556;28;20016;-71
2024/03/08 02:20:59;;;;;;;38.80;18.00;;;;;;;-146.27;79.51;46324.75;5079550;28;20031;-71
2024/03/08 02:23:25;;;;;;;36.13;17.20;;;;;;;-146.27;78.56;46360.56;5065360;28;20387;-71
2024/03/08 02:25:51;;;;;;;38.65;18.52;;;;;;;-146.27;78.15;46372.53;5068448;28;20158;-72
2024/03/08 02:28:18;;;;;;;34.28;17.45;;;;;;;-146.27;78.54;46348.63;5067943;28;20124;-71
2024/03/08 02:30:44;;;;;;;35.00;17.23;;;;;;;-146.27;78.46;46348.63;5066262;28;20058;-70
2024/03/08 02:33:09;;;;;;;31.63;16.60;;;;;;;-146.27;78.41;46332.69;5061955;28;20114;-71
2024/03/08 02:35:36;;;;;;;29.40;16.10;;;;;;;-146.27;78.71;46350.63;5056889;28;20035;-70
2024/03/08 02:38:03;;;;;;;34.85;17.75;;;;;;;-146.27;79.29;46376.50;5068732;28;20485;-71
2024/03/08 02:40:29;;;;;;;43.55;18.75;;;;;;;-146.27;79.29;46360.56;5067966;28;20369;-71
2024/03/08 02:42:54;;;;;;;37.95;17.85;;;;;;;-146.27;78.82;46356.59;5068159;28;20027;-70
2024/03/08 02:45:20;;;;;;;38.45;17.58;;;;;;;-146.27;78.63;46378.50;5068376;28;20070;-71
2024/03/08 02:47:46;;;;;;;36.10;17.20;;;;;;;-146.27;78.95;46370.53;5068453;28;20107;-71
2024/03/08 02:50:11;;;;;;;37.28;18.38;;;;;;;-146.27;78.98;46362.56;5065332;28;20170;-71
2024/03/08 02:52:37;;;;;;;40.00;17.83;;;;;;;-146.27;78.54;46362.56;5066475;28;20028;-70
2024/03/08 02:55:02;;;;;;;38.88;17.90;;;;;;;-146.27;78.71;46360.56;5066949;28;20016;-69
2024/03/08 02:57:28;;;;;;;38.60;18.25;;;;;;;-146.27;79.15;46374.50;5069225;28;20142;-71
2024/03/08 02:59:54;;;;;;;44.38;18.75;;;;;;;-146.27;79.24;46376.50;5063032;28;20025;-71
2024/03/08 03:02:19;;;;;;;36.80;18.33;;;;;;;-146.27;79.21;46348.63;5069890;28;20025;-71
2024/03/08 03:04:44;;;;;;;39.03;18.35;;;;;;;-146.27;79.09;46396.41;5067896;28;20027;-71
2024/03/08 03:07:10;;;;;;;36.65;18.05;;;;;;;-146.27;79.00;46376.50;5068292;28;20037;-71
2024/03/08 03:09:36;;;;;;;35.17;17.98;;;;;;;-146.27;78.74;46396.41;5066626;28;20130;-71
2024/03/08 03:12:02;;;;;;;34.80;17.50;;;;;;;-146.27;79.12;46404.38;5064978;28;20050;-70
2024/03/08 03:14:27;;;;;;;39.30;18.38;;;;;;;-146.27;79.29;46372.53;5069315;28;20107;-72
2024/03/08 03:16:54;;;;;;;37.08;17.67;;;;;;;-146.27;78.74;46376.50;5069364;28;20035;-70
2024/03/08 03:19:19;;;;;;;31.85;16.50;;;;;;;-146.27;78.98;46396.41;5071147;28;20210;-70
2024/03/08 03:21:45;;;;;;;36.15;17.25;;;;;;;-146.27;78.68;46424.28;5071445;28;20115;-70
2024/03/08 03:24:12;;;;;;;35.05;16.45;;;;;;;-146.27;78.68;46396.41;5072040;28;20146;-70
2024/03/08 03:26:40;;;;;;;38.17;18.10;;;;;;;-146.27;78.94;46382.47;5071518;28;20075;-70
2024/03/08 03:29:08;;;;;;;35.00;17.67;;;;;;;-146.27;78.61;46372.53;5071219;28;20074;-70
2024/03/08 03:31:34;;;;;;;34.03;17.35;;;;;;;-146.27;78.65;46396.41;5064050;28;20025;-72
2024/03/08 03:34:02;;;;;;;34.20;16.88;;;;;;;-146.27;78.51;46372.53;5072386;28;20021;-70
2024/03/08 03:36:28;;;;;;;36.88;18.13;;;;;;;-146.27;78.60;46404.38;5063089;28;20045;-69
2024/03/08 03:39:07;;;;;;;36.97;16.90;;;;;;;-146.27;78.76;46416.31;5064143;28;20059;-70
2024/03/08 03:41:32;;;;;;;36.97;18.05;;;;;;;-146.27;78.74;46392.44;5070694;28;20021;-70
2024/03/08 03:43:58;;;;;;;34.03;17.88;;;;;;;-146.27;78.48;46400.38;5053597;28;20390;-72
2024/03/08 03:46:24;;;;;;;36.10;18.60;;;;;;;-146.27;78.27;46408.34;5062578;28;20063;-71
2024/03/08 03:48:49;;;;;;;36.28;18.02;;;;;;;-146.27;78.30;46424.28;5065920;28;20440;-69
2024/03/08 03:51:15;;;;;;;38.67;18.30;;;;;;;-146.27;77.87;46408.34;5067299;28;20020;-71
2024/03/08 03:53:40;;;;;;;39.45;18.88;;;;;;;-146.27;77.83;46418.31;5071263;28;20020;-71
2024/03/08 03:56:06;;;;;;;40.60;18.67;;;;;;;-146.27;77.81;46436.22;5070730;28;20123;-72
2024/03/08 03:58:32;;;;;;;32.60;17.73;;;;;;;-146.27;77.33;46406.34;5071075;28;20024;-71
2024/03/08 04:00:58;;;;;;;39.42;18.40;;;;;;;-146.27;77.32;46434.22;5070165;28;20412;-71
2024/03/08 04:03:23;;;;;;;40.58;18.55;;;;;;;-146.27;77.19;46434.22;5071026;28;20020;-70
2024/03/08 04:05:49;;;;;;;35.60;18.55;;;;;;;-146.27;77.25;46424.28;5066806;28;20041;-71
2024/03/08 04:08:14;;;;;;;36.53;17.40;;;;;;;-146.27;76.68;46448.16;5071678;28;20021;-71
2024/03/08 04:10:41;;;;;;;40.05;19.05;;;;;;;-146.27;76.68;46422.28;5066502;28;20119;-71
2024/03/08 04:13:07;;;;;;;37.42;17.20;;;;;;;-146.27;76.83;46442.19;5074143;28;20477;-70
2024/03/08 04:15:32;;;;;;;32.60;17.95;;;;;;;-146.27;76.50;46440.19;5070124;28;20097;-72
2024/03/08 04:18:00;;;;;;;32.28;18.65;;;;;;;-146.27;76.45;46452.16;5061321;28;20032;-71
2024/03/08 04:20:25;;;;;;;36.50;19.10;;;;;;;-146.27;76.30;46440.19;5063893;28;20085;-70
2024/03/08 04:22:51;;;;;;;39.65;18.83;;;;;;;-146.27;76.36;46454.13;5069670;28;20029;-76
2024/03/08 04:25:16;;;;;;;38.60;19.35;;;;;;;-146.27;76.55;46448.16;5070820;28;20021;-78
2024/03/08 04:27:42;;;;;;;34.20;18.30;;;;;;;-146.27;76.14;46450.16;5068921;28;20079;-79
2024/03/08 04:30:08;;;;;;;37.15;17.58;;;;;;;-146.27;75.97;46466.09;5071403;28;20036;-77
2024/03/08 04:32:33;;;;;;;33.53;18.50;;;;;;;-146.27;75.75;46456.13;5070846;28;20032;-77
2024/03/08 04:35:01;;;;;;;32.92;16.63;;;;;;;-146.27;76.01;46472.06;5069562;28;20024;-77
2024/03/08 04:37:26;;;;;;;35.15;18.42;;;;;;;-146.27;75.92;46440.19;5062645;28;20107;-78
2024/03/08 04:39:51;;;;;;;32.78;19.58;;;;;;;-146.27;75.78;46480.03;5070909;28;20581;-77
2024/03/08 04:42:17;;;;;;;40.25;19.67;;;;;;;-146.27;75.44;46468.06;5069620;28;20035;-77
2024/03/08 04:44:43;;;;;;;36.17;18.67;;;;;;;-146.27;75.74;46452.16;5070899;28;20029;-78
2024/03/08 04:47:09;;;;;;;38.70;19.55;;;;;;;-146.27;75.20;46458.13;5062338;28;20370;-76
2024/03/08 04:49:35;;;;;;;31.20;17.27;;;;;;;-146.27;75.69;46482.00;5059283;28;20155;-76
2024/03/08 04:52:04;;;;;;;35.72;18.38;;;;;;;-146.27;75.28;46468.06;5063501;28;20557;-75
2024/03/08 04:54:30;;;;;;;37.13;19.02;;;;;;;-146.27;75.36;46509.88;5070121;28;20077;-77
2024/03/08 04:56:56;;;;;;;34.30;18.27;;;;;;;-146.27;75.50;46493.94;5068533;28;20028;-78
2024/03/08 04:59:21;;;;;;;33.38;17.65;;;;;;;-146.27;75.36;46474.03;5071059;28;20111;-75
2024/03/08 05:01:47;;;;;;;40.15;19.65;;;;;;;-146.27;74.90;46493.94;5071117;28;20016;-77
2024/03/08 05:04:13;;;;;;;35.10;19.10;;;;;;;-146.27;75.32;46487.97;5069792;28;20043;-78
2024/03/08 05:06:38;;;;;;;40.90;19.17;;;;;;;-146.27;75.02;46476.03;5067096;28;20021;-77
2024/03/08 05:09:13;;;;;;;40.92;19.17;;;;;;;-146.27;75.37;46470.06;5070901;28;20025;-76
2024/03/08 05:11:45;;;;;;;35.83;19.38;;;;;;;-146.27;75.38;46523.81;5059739;28;20395;-78
2024/03/08 05:14:13;;;;;;;36.80;19.65;;;;;;;-146.27;75.40;46482.00;5064057;28;20020;-77
2024/03/08 05:16:40;;;;;;;36.13;19.85;;;;;;;-146.27;75.55;46495.94;5064776;28;20119;-77
2024/03/08 05:19:05;;;;;;;37.53;18.90;;;;;;;-146.27;75.23;46521.81;5067989;28;20518;-77
2024/03/08 05:21:31;;;;;;;38.80;18.40;;;;;;;-146.27;75.22;46511.88;5069088;28;20028;-78
2024/03/08 05:23:56;;;;;;;33.00;18.83;;;;;;;-146.27;75.42;46495.94;5071060;28;20032;-77
2024/03/08 05:26:22;;;;;;;38.22;19.33;;;;;;;-146.27;75.26;46507.88;5070950;28;20051;-77
2024/03/08 05:28:48;;;;;;;41.90;18.95;;;;;;;-146.27;75.42;46497.94;5063890;28;20071;-76
2024/03/08 05:31:23;;;;;;;31.23;17.08;;;;;;;-146.27;75.34;46486.00;5067426;28;20032;-76
2024/03/08 05:33:49;;;;;;;32.60;18.83;;;;;;;-146.27;75.20;46523.81;5065741;28;20043;-77
2024/03/08 05:36:16;;;;;;;35.83;19.58;;;;;;;-146.27;75.26;46505.91;5066521;28;20032;-77
2024/03/08 05:38:43;;;;;;;36.75;19.13;;;;;;;-146.27;75.29;46499.94;5058967;28;20032;-77
2024/03/08 05:41:09;;;;;;;39.67;19.60;;;;;;;-146.27;75.17;46505.91;5068100;28;20043;-77
2024/03/08 05:43:34;;;;;;;36.05;19.42;;;;;;;-146.27;75.27;46489.97;5069823;28;20389;-77
2024/03/08 05:45:59;;;;;;;37.88;18.80;;;;;;;-146.27;75.16;46491.97;5065719;28;20035;-77
2024/03/08 05:48:25;;;;;;;36.20;19.10;;;;;;;-146.27;75.16;46521.81;5063147;28;20052;-77
2024/03/08 05:50:50;;;;;;;37.97;19.98;;;;;;;-146.27;75.18;46511.88;5067128;28;20032;-77
2024/03/08 05:53:16;;;;;;;42.55;19.48;;;;;;;-146.27;75.40;46501.91;5066739;28;20131;-77
2024/03/08 05:55:42;;;;;;;39.42;19.70;;;;;;;-146.27;75.27;46499.94;5065841;28;20379;-77
2024/03/08 05:58:07;;;;;;;45.28;20.17;;;;;;;-146.27;75.01;46511.88;5058470;28;21337;-77
2024/03/08 06:00:34;;;;;;;37.15;18.65;;;;;;;-146.27;75.03;46513.88;5066342;28;20054;-75
2024/03/08 06:02:59;;;;;;;39.42;19.92;;;;;;;-146.27;75.35;46515.84;5066668;28;20306;-74
2024/03/08 06:05:25;;;;;;;35.30;18.05;;;;;;;-146.27;75.29;46515.84;5063324;28;20103;-75
2024/03/08 06:07:53;;;;;;;33.65;18.13;;;;;;;-146.27;75.45;46493.94;5062807;28;20527;-74
2024/03/08 06:10:19;;;;;;;40.35;19.10;;;;;;;-146.27;75.26;46527.78;5065132;28;20048;-75
2024/03/08 06:12:45;;;;;;;34.88;18.80;;;;;;;-146.27;75.30;46539.75;5069511;28;20067;-74
2024/03/08 06:15:14;;;;;;;43.28;20.17;;;;;;;-146.27;75.30;46539.75;5065172;28;20239;-75
2024/03/08 06:17:40;;;;;;;44.58;19.00;;;;;;;-146.27;75.29;46523.81;5062575;28;20028;-72
2024/03/08 06:20:10;;;;;;;37.10;19.17;;;;;;;-146.27;75.62;46523.81;5067211;28;20475;-74
2024/03/08 06:22:37;;;;;;;41.47;19.70;;;;;;;-146.27;75.32;46563.63;5074057;28;20048;-75
2024/03/08 06:25:03;;;;;;;38.35;18.83;;;;;;;-146.27;75.95;46539.75;5066185;28;20027;-78
2024/03/08 06:27:28;;;;;;;38.83;19.85;;;;;;;-146.27;75.87;46561.63;5066199;28;20135;-77
2024/03/08 06:29:54;;;;;;;37.10;19.83;;;;;;;-146.27;75.78;46551.69;5055944;28;20082;-77
2024/03/08 06:32:19;;;;;;;36.95;19.33;;;;;;;-146.27;76.09;46583.53;5062574;28;20017;-76
2024/03/08 06:34:44;;;;;;;37.00;19.83;;;;;;;-146.27;75.92;46561.63;5065990;28;20086;-75
2024/03/08 06:37:10;;;;;;;38.15;19.80;;;;;;;-146.27;75.80;46571.59;5059208;28;20111;-74
2024/03/08 06:39:35;;;;;;;43.28;19.30;;;;;;;-146.27;75.81;46567.63;5066390;28;20028;-74
2024/03/08 06:42:01;;;;;;;38.83;20.23;;;;;;;-146.27;75.38;46621.38;5062660;28;20032;-75
2024/03/08 06:44:27;;;;;;;41.78;21.35;;;;;;;-146.27;75.19;46599.47;5067480;28;20028;-71
2024/03/08 06:46:52;;;;;;;34.88;18.83;;;;;;;-146.27;75.23;46611.41;5068742;28;20328;-68
2024/03/08 06:49:17;;;;;;;33.85;18.10;;;;;;;-146.27;75.80;46633.31;5070473;28;20032;-71
2024/03/08 06:51:43;;;;;;;40.17;19.73;;;;;;;-146.27;75.31;46635.31;5071661;28;20025;-70
2024/03/08 06:54:08;;;;;;;40.15;19.25;;;;;;;-146.27;75.33;46659.19;5071694;28;20101;-69
2024/03/08 06:56:37;;;;;;;37.38;19.77;;;;;;;-146.27;74.88;46633.31;5075702;28;20541;-69
2024/03/08 06:59:03;;;;;;;36.30;19.02;;;;;;;-146.27;75.01;46659.19;5070201;28;20103;-70
2024/03/08 07:01:31;;;;;;;36.63;19.38;;;;;;;-146.27;75.13;46689.06;5072333;28;20453;-70
2024/03/08 07:03:57;;;;;;;38.30;20.55;;;;;;;-146.27;75.00;46699.00;5069369;28;20027;-72
2024/03/08 07:06:22;;;;;;;38.60;19.50;;;;;;;-146.27;74.66;46706.97;5068426;28;20472;-70
2024/03/08 07:08:48;;;;;;;36.70;19.35;;;;;;;-146.27;74.52;46697.03;5070871;28;20059;-70
2024/03/08 07:11:18;;;;;;;37.95;19.27;;;;;;;-146.27;74.19;46730.88;5071769;28;20026;-70
2024/03/08 07:13:44;;;;;;;38.50;19.48;;;;;;;-146.27;74.47;46742.81;5070744;28;20044;-70
2024/03/08 07:16:11;;;;;;;37.10;19.77;;;;;;;-146.27;74.17;46712.94;5067888;28;20470;-69
2024/03/08 07:18:39;;;;;;;35.10;19.23;;;;;;;-146.27;74.44;46738.81;5068398;28;20485;-70
2024/03/08 07:21:05;;;;;;;42.38;21.02;;;;;;;-146.27;74.02;46740.81;5070956;28;20062;-70
2024/03/08 07:23:46;;;;;;;34.08;19.33;;;;;;;-146.27;73.77;46768.69;5072117;28;20067;-70
2024/03/08 07:26:15;;;;;;;33.33;19.67;;;;;;;-146.27;73.77;46754.75;5071890;28;20081;-70
2024/03/08 07:28:41;;;;;;;35.92;20.42;;;;;;;-146.27;73.06;46774.66;5069093;28;20021;-70
2024/03/08 07:33:38;;;;;;;35.20;19.25;;;;;;;-146.27;72.42;46770.69;5070578;28;20710;-72
2024/03/08 07:36:04;;;;;;;35.03;19.38;;;;;;;-146.27;72.52;46764.72;5071585;28;20024;-72
2024/03/08 07:38:29;;;;;;;36.78;19.88;;;;;;;-146.27;72.07;46734.84;5073866;28;20020;-71
2024/03/08 07:40:55;;;;;;;33.63;18.85;;;;;;;-146.27;71.70;46736.84;5072697;28;20059;-72
2024/03/08 07:43:22;;;;;;;33.83;17.95;;;;;;;-146.27;71.61;46774.66;5071916;28;20082;-70
2024/03/08 07:45:47;;;;;;;34.53;17.63;;;;;;;-146.27;71.11;46750.78;5078598;28;20035;-70
2024/03/08 07:48:12;;;;;;;33.90;18.40;;;;;;;-146.27;71.20;46754.75;5082562;28;20112;-70
2024/03/08 07:50:39;;;;;;;37.03;18.45;;;;;;;-146.27;71.27;46742.81;5071209;28;20024;-70
2024/03/08 07:53:08;;;;;;;38.05;19.45;;;;;;;-146.27;70.76;46794.56;5071775;28;20047;-75
2024/03/08 07:55:35;;;;;;;36.42;18.98;;;;;;;-146.27;70.73;46746.78;5070217;28;20534;-74
2024/03/08 07:58:01;;;;;;;36.80;19.25;;;;;;;-146.27;70.51;46766.69;5070932;28;20028;-75
2024/03/08 08:00:27;;;;;;;38.85;19.10;;;;;;;-146.27;69.79;46738.81;5071689;28;20488;-74
2024/03/08 08:02:53;;;;;;;33.28;17.90;;;;;;;-146.27;70.15;46746.78;5072214;28;20530;-75
2024/03/08 08:05:18;;;;;;;39.00;19.25;;;;;;;-146.27;69.65;46754.75;5068788;28;20020;-74
2024/03/08 08:07:45;;;;;;;34.60;17.50;;;;;;;-146.27;69.46;46770.69;5071596;28;20012;-75
2024/03/08 08:10:21;;;;;;;33.88;18.98;;;;;;;-146.27;69.59;46762.72;5071991;28;20020;-75
2024/03/08 08:12:50;;;;;;;34.40;18.92;;;;;;;-146.27;69.40;46750.78;5073631;28;20024;-76
2024/03/08 08:15:15;;;;;;;33.50;17.60;;;;;;;-146.27;68.68;46752.75;5071381;28;20063;-75
2024/03/08 08:17:44;;;;;;;34.50;19.05;;;;;;;-146.27;68.72;46746.78;5071984;28;20104;-75
2024/03/08 08:20:12;;;;;;;35.00;17.90;;;;;;;-146.27;68.52;46742.81;5083570;28;20031;-75
2024/03/08 08:22:42;;;;;;;34.22;18.35;;;;;;;-146.27;68.72;46734.84;5070377;28;20032;-76
2024/03/08 08:25:08;;;;;;;31.08;17.70;;;;;;;-146.27;68.23;46752.75;5066823;28;20481;-77
2024/03/08 08:27:36;;;;;;;31.38;17.48;;;;;;;-146.27;67.57;46740.81;5070992;28;20124;-75
2024/03/08 08:30:07;;;;;;;33.58;16.30;;;;;;;-146.27;67.76;46744.81;5070152;28;20546;-75
2024/03/08 08:32:36;;;;;;;37.20;18.77;;;;;;;-146.27;67.28;46726.88;5069677;28;20400;-76
2024/03/08 08:35:02;;;;;;;30.20;16.98;;;;;;;-146.27;67.08;46734.84;5071083;28;20033;-75
2024/03/08 08:37:28;;;;;;;34.83;18.13;;;;;;;-146.27;67.10;46746.78;5068917;28;20427;-76
2024/03/08 08:39:54;;;;;;;35.05;18.27;;;;;;;-146.27;66.17;46734.84;5054117;28;20031;-76
2024/03/08 08:42:21;;;;;;;31.35;16.92;;;;;;;-146.27;65.70;46718.91;5069943;28;20020;-75
2024/03/08 08:44:48;;;;;;;32.55;17.30;;;;;;;-146.27;65.69;46740.81;5069505;28;20020;-76
2024/03/08 08:47:14;;;;;;;35.17;17.73;;;;;;;-146.27;65.67;46734.84;5070505;28;20105;-75
2024/03/08 08:49:39;;;;;;;34.25;17.80;;;;;;;-146.27;65.57;46732.84;5069596;28;20024;-75
2024/03/08 08:52:05;;;;;;;31.15;18.77;;;;;;;-146.27;65.58;46726.88;5057896;28;20456;-76
2024/03/08 08:54:31;;;;;;;28.38;16.77;;;;;;;-146.27;65.09;46726.88;5069455;28;20024;-75
2024/03/08 08:56:56;;;;;;;29.30;16.95;;;;;;;-146.27;65.00;46706.97;5081394;28;20387;-77
2024/03/08 08:59:24;;;;;;;30.27;17.35;;;;;;;-146.27;64.68;46726.88;5090460;28;20028;-76
2024/03/08 09:01:53;;;;;;;34.78;18.60;;;;;;;-146.27;64.69;46726.88;5070300;28;20119;-77
2024/03/08 09:04:19;;;;;;;28.13;16.83;;;;;;;-146.27;63.93;46734.84;5069306;28;20441;-76
2024/03/08 09:06:44;;;;;;;30.08;17.55;;;;;;;-146.27;63.89;46722.91;5069766;28;20055;-77
2024/03/08 09:09:10;;;;;;;34.08;16.75;;;;;;;-146.27;63.55;46718.91;5070498;28;20113;-75
2024/03/08 09:11:41;;;;;;;33.00;17.52;;;;;;;-146.27;63.08;46671.13;5070300;28;20020;-75
2024/03/08 09:14:07;;;;;;;28.85;16.67;;;;;;;-146.27;62.31;46718.91;5070632;28;20032;-75
2024/03/08 09:16:33;;;;;;;28.58;16.67;;;;;;;-146.27;61.94;46706.97;5069432;28;20024;-77
2024/03/08 09:18:58;;;;;;;29.95;17.15;;;;;;;-146.27;60.67;46706.97;5069959;28;20469;-77
2024/03/08 09:21:24;;;;;;;31.73;16.85;;;;;;;-146.27;61.06;46647.25;5070632;28;20050;-76
2024/03/08 09:23:50;;;;;;;28.15;16.60;;;;;;;-146.27;59.20;46679.09;5071061;28;20040;-75
2024/03/08 09:26:15;;;;;;;29.80;16.25;;;;;;;-146.27;58.20;46716.94;5070598;28;20046;-76
2024/03/08 09:28:41;;;;;;;30.25;17.67;;;;;;;-146.27;58.30;46687.06;5068357;28;20021;-77
2024/03/08 09:31:06;;;;;;;27.35;16.58;;;;;;;-146.27;58.43;46687.06;5069945;28;20028;-76
2024/03/08 09:33:31;;;;;;;25.35;15.75;;;;;;;-146.27;57.82;46671.13;5070803;28;20059;-76
2024/03/08 09:36:00;;;;;;;28.13;15.93;;;;;;;-146.27;56.58;46671.13;5070564;28;20021;-76
2024/03/08 09:38:25;;;;;;;30.88;17.48;;;;;;;-146.27;55.83;46679.09;5069852;28;20035;-78
2024/03/08 09:40:52;;;;;;;30.17;16.88;;;;;;;-146.27;55.94;46667.16;5070730;28;20016;-75
2024/03/08 09:43:18;;;;;;;29.75;17.38;;;;;;;-146.27;55.20;46687.06;5070301;28;20020;-76
2024/03/08 09:45:46;;;;;;;29.33;16.33;;;;;;;-146.27;54.86;46663.16;5070353;28;20033;-76
2024/03/08 09:48:12;;;;;;;30.98;16.63;;;;;;;-146.27;53.09;46651.22;5068063;28;20507;-76
2024/03/08 09:50:39;;;;;;;29.20;17.25;;;;;;;-146.27;52.00;46647.25;5070245;28;20028;-76
2024/03/08 09:53:08;;;;;;;28.92;16.65;;;;;;;-146.27;52.00;46647.25;5070333;28;20499;-76
2024/03/08 09:55:36;;;;;;;27.05;16.15;;;;;;;-146.27;52.11;46629.31;5070126;28;20020;-75
2024/03/08 10:00:46;;;;;;;29.95;16.17;;;;;;;-146.27;50.73;46651.22;5064911;28;20040;-74
2024/03/08 10:03:14;;;;;;;29.33;17.27;;;;;;;-146.27;51.15;46631.31;5070223;28;20549;-77
2024/03/08 10:05:41;;;;;;;28.00;17.05;;;;;;;-146.27;49.81;46659.19;5070439;28;20028;-77
2024/03/08 10:08:06;;;;;;;27.80;15.45;;;;;;;-146.27;49.36;46653.22;5066476;28;20107;-76
2024/03/08 10:10:35;;;;;;;26.05;16.23;;;;;;;-146.27;49.23;46607.44;5068085;28;20108;-75
2024/03/08 10:13:01;;;;;;;26.73;16.40;;;;;;;-146.27;48.20;46633.31;5053308;28;20032;-72
2024/03/08 10:15:29;;;;;;;29.15;16.30;;;;;;;-146.27;48.12;46655.22;5065556;28;20062;-71
2024/03/08 10:17:56;;;;;;;25.70;15.02;;;;;;;-146.27;48.33;46623.34;5051234;28;20040;-71
2024/03/08 10:20:21;;;;;;;23.35;15.55;;;;;;;-146.27;48.18;46619.38;5069474;28;20031;-70
2024/03/08 10:22:47;;;;;;;28.52;15.70;;;;;;;-146.27;47.52;46661.19;5068400;28;20028;-71
2024/03/08 10:25:13;;;;;;;26.42;15.07;;;;;;;-146.27;46.63;46695.03;5071466;28;20047;-71
2024/03/08 10:27:40;;;;;;;25.88;15.23;;;;;;;-146.27;47.41;46675.13;5071568;28;20048;-72
2024/03/08 10:30:10;;;;;;;26.88;16.00;;;;;;;-146.27;47.10;46679.09;5072862;28;20564;-71
2024/03/08 10:32:35;;;;;;;27.90;16.88;;;;;;;-146.27;46.73;46633.31;5071349;28;20181;-71
2024/03/08 10:35:01;;;;;;;24.58;15.45;;;;;;;-146.27;45.82;46679.09;5075963;28;20025;-72
2024/03/08 10:37:29;;;;;;;24.98;14.63;;;;;;;-146.27;45.74;46718.91;5072631;28;20024;-71
2024/03/08 10:40:10;;;;;;;21.73;14.52;;;;;;;-146.27;46.06;46706.97;5074829;28;20111;-71
2024/03/08 10:42:52;;;;;;;27.08;15.00;;;;;;;-146.27;45.15;46703.00;5085653;28;20036;-71
2024/03/08 10:45:37;;;;;;;28.08;15.43;;;;;;;-146.27;45.30;46710.94;5083673;28;20020;-70
2024/03/08 10:48:44;;;;;;;23.25;14.40;;;;;;;-146.27;43.95;46695.03;5073377;28;20052;-71
2024/03/08 10:51:13;;;;;;;23.83;13.90;;;;;;;-146.27;44.68;46726.88;5074642;28;20078;-71
2024/03/08 10:53:43;;;;;;;26.50;14.63;;;;;;;-146.27;44.58;46689.06;5089295;28;20043;-71
2024/03/08 10:56:09;;;;;;;25.48;15.13;;;;;;;-146.27;43.04;46734.84;5077154;28;20150;-71
2024/03/08 10:58:36;;;;;;;23.15;14.52;;;;;;;-146.27;43.06;46750.78;5083545;28;20027;-72
2024/03/08 11:01:02;;;;;;;23.67;14.45;;;;;;;-146.27;42.44;46786.59;5061167;28;20036;-72
2024/03/08 11:03:44;;;;;;;21.50;14.52;;;;;;;-146.27;42.30;46782.63;5067238;28;20031;-72
2024/03/08 11:06:22;;;;;;;23.17;14.40;;;;;;;-146.27;42.17;46814.47;5071466;28;20033;-71